Terminal Aerodrome Forecast
Issued by NWS

Home | Current Version | Previous Version | Text Only | Print | Product List | Glossary On
Versions: 1 2 3 4 5 6 7 8 9 10 11 12 13 14 15 16 17 18 19 20 21 22 23 24 25 26 27 28 29 30 31 32 33 34 35 36 37 38 39 40 41 42 43 44 45 46 47 48 49 50
000
FTUS45 KBOU 092337
TAFAPA
TAF
KAPA 092337Z 1000/1024 04014KT P6SM VCTS SCT080CB SCT120
      TEMPO 1000/1002 VRB20G30KT -TSRA BKN070CB
     FM100200 12011KT P6SM FEW080 SCT120 BKN200
     FM100500 19008KT P6SM FEW120 SCT200
     FM101700 23008KT P6SM FEW120 BKN200
     FM102200 28010KT P6SM VCTS SCT080CB BKN120=

USA.gov is the U.S. government's official web portal to all federal, state and local government web resources and services.